createdAt,value
2023-05-10T00:02:23.067Z,12.50
2023-05-10T00:04:50.869Z,11.93
2023-05-10T00:07:18.997Z,11.52
2023-05-10T00:09:46.802Z,12.82
2023-05-10T00:12:15.952Z,11.93
2023-05-10T00:14:43.773Z,13.82
2023-05-10T00:17:11.614Z,13.45
2023-05-10T00:19:39.370Z,14.02
2023-05-10T00:22:07.159Z,14.13
2023-05-10T00:24:35.002Z,15.63
2023-05-10T00:27:05.218Z,14.75
2023-05-10T00:29:34.871Z,14.98
2023-05-10T00:32:02.738Z,15.40
2023-05-10T00:34:30.494Z,15.00
2023-05-10T00:36:58.288Z,16.92
2023-05-10T00:39:27.412Z,17.40
2023-05-10T00:41:55.233Z,17.38
2023-05-10T00:44:22.985Z,15.23
2023-05-10T00:46:52.238Z,17.50
2023-05-10T00:49:20.231Z,19.17
2023-05-10T00:51:48.008Z,16.50
2023-05-10T00:54:17.031Z,18.52
2023-05-10T00:56:49.523Z,20.13
2023-05-10T00:59:18.784Z,18.27
2023-05-10T01:01:47.056Z,19.13
2023-05-10T01:04:17.357Z,23.63
2023-05-10T01:06:45.612Z,18.67
2023-05-10T01:09:13.749Z,17.02
2023-05-10T01:11:42.231Z,18.92
2023-05-10T01:14:10.606Z,21.13
2023-05-10T01:16:40.358Z,22.63
2023-05-10T01:19:13.804Z,20.38
2023-05-10T01:21:50.551Z,22.08
2023-05-10T01:24:54.201Z,18.33
2023-05-10T01:27:49.823Z,21.08
2023-05-10T01:30:45.008Z,23.85
2023-05-10T01:33:20.343Z,17.80
2023-05-10T01:35:57.599Z,16.88
2023-05-10T01:38:34.421Z,15.65
2023-05-10T01:41:12.570Z,17.95
2023-05-10T01:43:48.399Z,19.27
2023-05-10T01:46:19.871Z,19.80
2023-05-10T01:48:53.551Z,19.63
2023-05-10T01:51:26.158Z,19.17
2023-05-10T01:54:00.133Z,16.13
2023-05-10T01:56:30.105Z,17.63
2023-05-10T01:58:58.904Z,20.63
2023-05-10T02:01:28.178Z,18.92
2023-05-10T02:03:59.291Z,20.38
2023-05-10T02:06:29.086Z,17.35
2023-05-10T02:08:57.716Z,19.77
2023-05-10T02:11:27.187Z,16.52
2023-05-10T02:13:57.175Z,21.55
2023-05-10T02:16:28.380Z,19.63
2023-05-10T02:19:00.270Z,18.73
2023-05-10T02:21:29.346Z,18.42
2023-05-10T02:23:58.565Z,19.02
2023-05-10T02:26:27.368Z,18.80
2023-05-10T02:28:56.961Z,18.67
2023-05-10T02:31:25.295Z,22.00
2023-05-10T02:33:54.405Z,22.10
2023-05-10T02:36:24.911Z,18.92
2023-05-10T02:38:54.853Z,18.95
2023-05-10T02:41:23.809Z,21.35
2023-05-10T02:43:53.758Z,23.02
2023-05-10T02:46:21.641Z,19.45
2023-05-10T02:48:49.522Z,19.33
2023-05-10T02:51:20.225Z,22.08
2023-05-10T02:53:53.067Z,22.92
2023-05-10T02:56:27.765Z,22.92
2023-05-10T02:59:01.372Z,20.75
2023-05-10T03:01:29.173Z,24.40
2023-05-10T03:03:57.130Z,20.35
2023-05-10T03:06:25.034Z,21.13
2023-05-10T03:08:54.225Z,23.83
2023-05-10T03:11:35.641Z,23.80
2023-05-10T03:14:14.476Z,21.77
2023-05-10T03:16:47.883Z,20.58
2023-05-10T03:19:20.559Z,22.38
2023-05-10T03:21:53.230Z,21.48
2023-05-10T03:24:25.299Z,23.08
2023-05-10T03:26:56.457Z,22.95
2023-05-10T03:29:25.096Z,22.67
2023-05-10T03:31:53.058Z,22.25
2023-05-10T03:34:25.640Z,19.98
2023-05-10T03:36:53.588Z,22.50
2023-05-10T03:39:22.782Z,23.83
2023-05-10T03:41:50.509Z,19.90
2023-05-10T03:44:18.364Z,19.17
2023-05-10T03:46:46.585Z,23.48
2023-05-10T03:49:14.382Z,21.70
2023-05-10T03:51:42.326Z,23.13
2023-05-10T03:54:10.077Z,21.33
2023-05-10T03:56:39.283Z,24.83
2023-05-10T03:59:08.445Z,24.88
2023-05-10T04:01:36.825Z,27.27
2023-05-10T04:04:04.782Z,20.73
2023-05-10T04:06:33.029Z,22.95
2023-05-10T04:09:04.926Z,25.98
2023-05-10T04:11:32.707Z,22.75
2023-05-10T04:14:01.810Z,23.98
2023-05-10T04:16:29.521Z,27.90
2023-05-10T04:18:57.365Z,25.73
2023-05-10T04:21:25.589Z,22.20
2023-05-10T04:23:53.363Z,25.40
2023-05-10T04:26:21.165Z,27.23
2023-05-10T04:28:48.976Z,28.13
2023-05-10T04:31:18.232Z,25.27
2023-05-10T04:33:45.964Z,26.35
2023-05-10T04:36:13.727Z,28.48
2023-05-10T04:38:41.466Z,27.90
2023-05-10T04:41:10.179Z,29.90
2023-05-10T04:43:41.447Z,28.10
2023-05-10T04:46:09.283Z,31.05
2023-05-10T04:48:38.408Z,32.80
2023-05-10T04:51:07.482Z,30.38
2023-05-10T04:53:35.676Z,28.98
2023-05-10T04:56:03.515Z,28.83
2023-05-10T04:58:31.529Z,31.50
2023-05-10T05:00:59.595Z,29.83
2023-05-10T05:03:27.625Z,28.15
2023-05-10T05:05:56.908Z,29.02
2023-05-10T05:08:25.045Z,30.85
2023-05-10T05:10:53.128Z,28.83
2023-05-10T05:13:20.980Z,29.52
2023-05-10T05:15:48.854Z,30.70
2023-05-10T05:18:16.663Z,31.35
2023-05-10T05:20:44.435Z,35.17
2023-05-10T05:23:13.679Z,34.15
2023-05-10T05:25:41.610Z,35.65
2023-05-10T05:28:09.456Z,33.65
2023-05-10T05:30:37.466Z,35.17
2023-05-10T05:33:05.410Z,35.58
2023-05-10T05:35:33.382Z,33.08
2023-05-10T05:38:01.311Z,35.65
2023-05-10T05:40:30.575Z,36.47
2023-05-10T05:42:58.426Z,36.40
2023-05-10T05:45:26.215Z,37.00
2023-05-10T05:47:54.121Z,36.85
2023-05-10T05:50:21.860Z,33.53
2023-05-10T05:52:49.627Z,33.00
2023-05-10T05:55:17.711Z,36.42
2023-05-10T05:57:47.030Z,35.08
2023-05-10T06:00:16.328Z,33.83
2023-05-10T06:02:44.171Z,36.30
2023-05-10T06:05:11.934Z,35.65
2023-05-10T06:07:40.697Z,34.33
2023-05-10T06:10:09.442Z,34.03
2023-05-10T06:12:37.465Z,36.33
2023-05-10T06:15:07.617Z,36.05
2023-05-10T06:17:35.557Z,35.05
2023-05-10T06:20:03.464Z,37.33
2023-05-10T06:22:31.166Z,33.10
2023-05-10T06:24:58.869Z,34.15
2023-05-10T06:27:26.956Z,31.73
2023-05-10T06:30:02.148Z,33.90
2023-05-10T06:35:07.392Z,34.55
2023-05-10T06:37:36.590Z,33.40
2023-05-10T06:40:05.002Z,35.88
2023-05-10T06:42:33.075Z,35.92
2023-05-10T06:45:00.805Z,36.05
2023-05-10T06:47:28.781Z,36.00
2023-05-10T06:49:57.937Z,36.45
2023-05-10T06:52:25.994Z,36.03
2023-05-10T06:54:53.740Z,35.55
2023-05-10T06:57:31.112Z,37.80
2023-05-10T06:59:59.918Z,34.90
2023-05-10T07:02:28.125Z,37.53
2023-05-10T07:04:59.462Z,36.00
2023-05-10T07:07:28.804Z,36.33
2023-05-10T07:09:57.592Z,34.78
2023-05-10T07:12:25.541Z,35.72
2023-05-10T07:14:53.325Z,35.75
2023-05-10T07:17:21.207Z,37.08
2023-05-10T07:19:49.419Z,39.25
2023-05-10T07:22:19.066Z,38.03
2023-05-10T07:24:47.155Z,37.65
2023-05-10T07:27:15.026Z,37.88
2023-05-10T07:29:43.173Z,36.13
2023-05-10T07:32:10.970Z,35.33
2023-05-10T07:34:38.840Z,35.33
2023-05-10T07:37:07.183Z,35.58
2023-05-10T07:39:36.612Z,33.78
2023-05-10T07:42:04.867Z,32.30
2023-05-10T07:44:32.598Z,33.10
2023-05-10T07:47:00.476Z,30.00
2023-05-10T07:49:28.317Z,28.70
2023-05-10T07:51:56.046Z,27.60
2023-05-10T07:54:23.773Z,29.60
2023-05-10T07:56:53.180Z,30.17
2023-05-10T07:59:21.031Z,30.20
2023-05-10T08:01:48.799Z,29.98
2023-05-10T08:04:17.056Z,31.10
2023-05-10T08:06:44.936Z,30.80
2023-05-10T08:09:12.992Z,31.05
2023-05-10T08:11:40.821Z,30.42
2023-05-10T08:14:10.033Z,28.65
2023-05-10T08:16:38.387Z,30.02
2023-05-10T08:19:06.449Z,29.33
2023-05-10T08:21:34.485Z,30.38
2023-05-10T08:24:02.466Z,28.70
2023-05-10T08:26:30.404Z,29.88
2023-05-10T08:28:58.199Z,26.70
2023-05-10T08:31:27.435Z,25.33
2023-05-10T08:33:55.198Z,25.27
2023-05-10T08:36:25.101Z,24.58
2023-05-10T08:38:53.639Z,24.17
2023-05-10T08:41:22.796Z,26.40
2023-05-10T08:43:52.024Z,25.92
2023-05-10T08:46:22.033Z,23.75
2023-05-10T08:48:53.453Z,23.88
2023-05-10T08:51:24.783Z,23.63
2023-05-10T08:53:52.745Z,25.17
2023-05-10T08:56:21.366Z,23.05
2023-05-10T08:58:50.068Z,23.58
2023-05-10T09:01:19.156Z,22.27
2023-05-10T09:03:48.410Z,22.73
2023-05-10T09:06:17.878Z,22.77
2023-05-10T09:08:47.106Z,23.45
2023-05-10T09:11:17.188Z,23.00
2023-05-10T09:13:45.478Z,22.58
2023-05-10T09:18:48.179Z,25.02
2023-05-10T09:21:17.661Z,21.60
2023-05-10T09:23:48.114Z,22.75
2023-05-10T09:26:16.510Z,21.65
2023-05-10T09:28:54.958Z,22.42
2023-05-10T09:31:23.170Z,22.48
2023-05-10T09:33:51.920Z,22.33
2023-05-10T09:36:21.354Z,21.00
2023-05-10T09:38:50.087Z,20.67
2023-05-10T09:41:19.546Z,20.35
2023-05-10T09:43:47.387Z,18.05
2023-05-10T09:46:15.645Z,20.20
2023-05-10T09:48:45.305Z,19.70
2023-05-10T09:51:13.228Z,19.63
2023-05-10T09:53:42.687Z,18.83
2023-05-10T09:56:10.783Z,20.13
2023-05-10T09:58:40.106Z,20.10
2023-05-10T10:01:14.044Z,21.48
2023-05-10T10:03:44.910Z,21.15
2023-05-10T10:06:26.481Z,22.73
2023-05-10T10:08:59.195Z,21.73
2023-05-10T10:11:27.052Z,20.55
2023-05-10T10:13:54.855Z,20.77
2023-05-10T10:16:23.080Z,18.98
2023-05-10T10:18:51.446Z,19.40
2023-05-10T10:21:19.723Z,20.10
2023-05-10T10:23:48.607Z,18.95
2023-05-10T10:26:19.762Z,20.90
2023-05-10T10:28:54.016Z,18.40
2023-05-10T10:31:30.587Z,19.00
2023-05-10T10:34:04.000Z,18.35
2023-05-10T10:36:32.307Z,18.17
2023-05-10T10:39:05.131Z,18.23
2023-05-10T10:41:36.051Z,18.63
2023-05-10T10:44:27.304Z,17.85
2023-05-10T10:47:02.675Z,16.88
2023-05-10T10:49:33.641Z,17.92
2023-05-10T10:52:24.401Z,19.30
2023-05-10T10:54:53.594Z,20.13
2023-05-10T10:57:23.987Z,20.77
2023-05-10T11:00:02.574Z,20.73
2023-05-10T11:02:46.858Z,19.13
2023-05-10T11:05:42.896Z,17.50
2023-05-10T11:08:18.301Z,18.80
2023-05-10T11:10:53.910Z,16.55
2023-05-10T11:13:31.895Z,18.98
2023-05-10T11:16:00.747Z,20.60
2023-05-10T11:18:29.803Z,21.13
2023-05-10T11:21:00.828Z,19.85
2023-05-10T11:23:33.408Z,21.77
2023-05-10T11:26:02.257Z,22.42
2023-05-10T11:28:31.408Z,20.52
2023-05-10T11:30:59.716Z,24.98
2023-05-10T11:33:27.449Z,24.42
2023-05-10T11:35:55.129Z,22.27
2023-05-10T11:38:22.873Z,22.45
2023-05-10T11:40:54.287Z,20.55
2023-05-10T11:43:26.573Z,19.30
2023-05-10T11:48:25.137Z,17.05
2023-05-10T11:50:53.801Z,16.70
2023-05-10T11:53:23.728Z,16.58
2023-05-10T11:55:52.570Z,15.77
2023-05-10T11:58:22.239Z,17.73
2023-05-10T12:00:50.436Z,14.27
2023-05-10T12:03:19.993Z,14.60
2023-05-10T12:05:48.012Z,14.82
2023-05-10T12:08:17.234Z,15.00
2023-05-10T12:10:45.008Z,13.93
2023-05-10T12:13:16.714Z,11.48
2023-05-10T12:15:46.640Z,12.25
2023-05-10T12:18:18.671Z,10.27
2023-05-10T12:20:47.878Z,11.32
2023-05-10T12:23:15.913Z,8.98
2023-05-10T12:25:44.330Z,8.90
2023-05-10T12:28:12.152Z,8.70
2023-05-10T12:30:40.666Z,8.65
2023-05-10T12:33:15.969Z,8.50
2023-05-10T12:35:50.333Z,7.53
2023-05-10T12:38:30.567Z,7.70
2023-05-10T12:40:59.419Z,7.93
2023-05-10T12:43:27.451Z,7.90
2023-05-10T12:45:55.678Z,7.45
2023-05-10T12:48:23.802Z,8.23
2023-05-10T12:50:52.974Z,7.07
2023-05-10T12:53:20.830Z,6.95
2023-05-10T12:55:50.445Z,6.60
2023-05-10T12:58:34.490Z,6.90
2023-05-10T13:01:05.900Z,7.22
2023-05-10T13:03:34.058Z,7.72
2023-05-10T13:06:12.590Z,8.10
2023-05-10T13:08:41.948Z,6.75
2023-05-10T13:11:09.872Z,8.57
2023-05-10T13:13:38.303Z,8.13
2023-05-10T13:16:06.806Z,8.57
2023-05-10T13:18:34.755Z,9.70
2023-05-10T13:21:05.056Z,8.55
2023-05-10T13:23:33.300Z,8.32
2023-05-10T13:26:01.156Z,8.50
2023-05-10T13:28:29.020Z,8.40
2023-05-10T13:30:56.956Z,8.95
2023-05-10T13:33:25.106Z,8.55
2023-05-10T13:35:56.403Z,8.10
2023-05-10T13:38:25.953Z,7.00
2023-05-10T13:40:54.360Z,7.30
2023-05-10T13:43:22.246Z,6.85
2023-05-10T13:45:50.107Z,7.97
2023-05-10T13:48:18.001Z,10.43
2023-05-10T13:50:48.812Z,7.10
2023-05-10T13:53:16.718Z,7.72
2023-05-10T13:55:45.945Z,8.32
2023-05-10T13:58:13.884Z,6.72
2023-05-10T14:00:41.887Z,10.80
2023-05-10T14:03:12.082Z,9.35
2023-05-10T14:05:40.550Z,10.23
2023-05-10T14:08:11.955Z,9.63
2023-05-10T14:10:43.069Z,7.90
2023-05-10T14:13:12.282Z,6.40
2023-05-10T14:15:40.190Z,6.35
2023-05-10T14:18:10.018Z,6.75
2023-05-10T14:20:38.222Z,7.40
2023-05-10T14:23:06.001Z,7.10
2023-05-10T14:25:34.171Z,8.48
2023-05-10T14:28:02.110Z,8.48
2023-05-10T14:30:31.662Z,7.38
2023-05-10T14:32:59.669Z,8.13
2023-05-10T14:35:29.628Z,8.43
2023-05-10T14:37:58.811Z,8.43
2023-05-10T14:40:27.076Z,9.07
2023-05-10T14:42:55.109Z,9.30
2023-05-10T14:45:23.598Z,9.57
2023-05-10T14:47:53.041Z,8.70
2023-05-10T14:50:35.164Z,8.48
2023-05-10T14:53:04.181Z,9.52
2023-05-10T14:55:32.189Z,9.70
2023-05-10T14:58:00.282Z,9.82
2023-05-10T15:00:29.875Z,9.57
2023-05-10T15:02:59.932Z,10.25
2023-05-10T15:05:28.364Z,10.38
2023-05-10T15:07:56.904Z,10.07
2023-05-10T15:10:26.827Z,10.20
2023-05-10T15:12:55.959Z,14.80
2023-05-10T15:15:23.848Z,13.85
2023-05-10T15:17:51.854Z,11.98
2023-05-10T15:20:21.185Z,11.90
2023-05-10T15:22:49.066Z,8.75
2023-05-10T15:25:17.497Z,5.60
2023-05-10T15:27:45.694Z,5.50
2023-05-10T15:30:14.523Z,5.88
2023-05-10T15:32:43.863Z,5.57
2023-05-10T15:35:12.289Z,4.60
2023-05-10T15:37:41.694Z,2.40
2023-05-10T15:40:10.512Z,2.85
2023-05-10T15:42:38.341Z,3.17
2023-05-10T15:45:07.159Z,3.92
2023-05-10T15:47:34.940Z,4.90
2023-05-10T15:50:02.891Z,4.10
2023-05-10T15:52:30.802Z,4.15
2023-05-10T15:54:59.984Z,4.50
2023-05-10T15:57:27.875Z,4.20
2023-05-10T15:59:56.357Z,4.65
2023-05-10T16:02:24.257Z,3.47
2023-05-10T16:04:52.116Z,4.10
2023-05-10T16:07:20.055Z,4.60
2023-05-10T16:09:49.458Z,4.40
2023-05-10T16:12:18.910Z,4.75
2023-05-10T16:14:46.994Z,5.40
2023-05-10T16:17:15.726Z,6.63
2023-05-10T16:19:43.775Z,6.25
2023-05-10T16:22:11.590Z,6.05
2023-05-10T16:24:39.510Z,7.63
2023-05-10T16:27:07.303Z,10.20
2023-05-10T16:29:38.242Z,9.27
2023-05-10T16:32:06.528Z,10.10
2023-05-10T16:34:34.333Z,8.60
2023-05-10T16:37:02.199Z,7.88
2023-05-10T16:39:30.254Z,7.13
2023-05-10T16:41:58.184Z,9.30
2023-05-10T16:44:26.293Z,6.63
2023-05-10T16:46:58.523Z,7.72
2023-05-10T16:49:26.581Z,7.40
2023-05-10T16:51:54.523Z,6.78
2023-05-10T16:54:22.902Z,6.90
2023-05-10T16:56:50.866Z,6.60
2023-05-10T16:59:18.746Z,7.50
2023-05-10T17:01:47.072Z,7.68
2023-05-10T17:04:17.782Z,7.45
2023-05-10T17:06:45.744Z,8.57
2023-05-10T17:09:42.809Z,9.43
2023-05-10T17:12:44.346Z,8.05
2023-05-10T17:15:12.970Z,8.15
2023-05-10T17:17:40.905Z,9.73
2023-05-10T17:20:11.472Z,10.00
2023-05-10T17:22:39.213Z,10.00
2023-05-10T17:25:08.264Z,9.70
2023-05-10T17:27:39.152Z,8.85
2023-05-10T17:30:08.243Z,8.48
2023-05-10T17:32:36.166Z,10.25
2023-05-10T17:35:05.179Z,9.23
2023-05-10T17:37:34.445Z,10.57
2023-05-10T17:40:03.516Z,10.63
2023-05-10T17:42:34.197Z,10.20
2023-05-10T17:45:05.165Z,10.20
2023-05-10T17:47:34.140Z,13.50
2023-05-10T17:50:02.099Z,13.10
2023-05-10T17:52:38.561Z,12.85
2023-05-10T17:55:09.243Z,12.98
2023-05-10T17:57:38.880Z,10.68
2023-05-10T18:00:08.813Z,12.45
2023-05-10T18:02:36.980Z,11.23
2023-05-10T18:05:05.114Z,9.32
2023-05-10T18:07:33.073Z,9.98
2023-05-10T18:10:04.434Z,9.63
2023-05-10T18:12:33.716Z,11.93
2023-05-10T18:15:11.673Z,12.48
2023-05-10T18:17:42.722Z,9.48
2023-05-10T18:20:11.645Z,11.60
2023-05-10T18:22:42.648Z,11.30
2023-05-10T18:25:11.035Z,9.57
2023-05-10T18:27:40.352Z,8.48
2023-05-10T18:30:10.165Z,12.38
2023-05-10T18:32:41.799Z,10.77
2023-05-10T18:35:10.833Z,10.43
2023-05-10T18:37:39.193Z,9.93
2023-05-10T18:40:09.634Z,11.27
2023-05-10T18:42:38.025Z,10.75
2023-05-10T18:45:08.884Z,8.43
2023-05-10T18:47:36.864Z,9.88
2023-05-10T18:50:05.766Z,9.82
2023-05-10T18:52:38.147Z,10.70
2023-05-10T18:57:40.993Z,10.75
2023-05-10T19:00:12.449Z,10.27
2023-05-10T19:02:41.012Z,10.73
2023-05-10T19:05:09.809Z,10.15
2023-05-10T19:07:38.256Z,13.23
2023-05-10T19:10:07.137Z,11.65
2023-05-10T19:12:35.543Z,13.32
2023-05-10T19:15:03.475Z,12.50
2023-05-10T19:17:32.826Z,12.73
2023-05-10T19:20:01.278Z,14.00
2023-05-10T19:25:01.284Z,14.57
2023-05-10T19:27:32.157Z,15.18
2023-05-10T19:30:01.752Z,14.02
2023-05-10T19:32:33.199Z,12.90
2023-05-10T19:35:01.163Z,14.85
2023-05-10T19:37:29.142Z,15.60
2023-05-10T19:39:57.014Z,18.23
2023-05-10T19:42:24.945Z,16.13
2023-05-10T19:44:52.857Z,15.45
2023-05-10T19:47:20.779Z,17.77
2023-05-10T19:49:50.066Z,16.27
2023-05-10T19:52:17.960Z,18.02
2023-05-10T19:54:45.849Z,17.67
2023-05-10T19:57:14.190Z,14.75
2023-05-10T19:59:42.577Z,17.25
2023-05-10T20:02:10.470Z,14.10
2023-05-10T20:04:38.452Z,17.65
2023-05-10T20:07:07.854Z,15.50
2023-05-10T20:09:35.739Z,13.98
2023-05-10T20:12:35.964Z,18.90
2023-05-10T20:15:19.308Z,27.70
2023-05-10T20:18:11.317Z,17.52
2023-05-10T20:21:31.881Z,19.40
2023-05-10T20:24:22.486Z,20.50
2023-05-10T20:26:50.440Z,22.40
2023-05-10T20:29:18.283Z,22.67
2023-05-10T20:31:46.351Z,17.23
2023-05-10T20:34:14.340Z,17.42
2023-05-10T20:36:42.242Z,17.90
2023-05-10T20:39:17.957Z,22.02
2023-05-10T20:41:45.812Z,21.75
2023-05-10T20:44:14.489Z,17.70
2023-05-10T20:46:42.456Z,18.10
2023-05-10T20:49:10.413Z,19.90
2023-05-10T20:51:38.424Z,19.30
2023-05-10T20:54:06.483Z,19.65
2023-05-10T20:56:37.103Z,19.00
2023-05-10T20:59:05.178Z,21.98
2023-05-10T21:01:33.170Z,22.20
2023-05-10T21:04:01.004Z,19.38
2023-05-10T21:06:28.838Z,19.90
2023-05-10T21:08:56.678Z,26.30
2023-05-10T21:11:24.629Z,28.33
2023-05-10T21:13:53.872Z,21.80
2023-05-10T21:16:21.779Z,20.60
2023-05-10T21:18:49.804Z,23.23
2023-05-10T21:21:17.806Z,24.98
2023-05-10T21:23:47.352Z,28.48
2023-05-10T21:26:15.300Z,28.13
2023-05-10T21:28:43.565Z,20.80
2023-05-10T21:31:12.943Z,22.50
2023-05-10T21:33:40.999Z,23.20
2023-05-10T21:36:16.971Z,26.98
2023-05-10T21:38:45.271Z,26.88
2023-05-10T21:41:13.188Z,26.95
2023-05-10T21:43:41.006Z,31.67
2023-05-10T21:46:15.447Z,30.98
2023-05-10T21:48:43.428Z,34.00
2023-05-10T21:51:11.219Z,28.80
2023-05-10T21:53:39.375Z,29.00
2023-05-10T21:56:07.679Z,26.23
2023-05-10T21:58:35.760Z,31.92
2023-05-10T22:01:03.905Z,30.08
2023-05-10T22:03:33.342Z,33.08
2023-05-10T22:06:01.318Z,29.75
2023-05-10T22:08:29.314Z,27.55
2023-05-10T22:10:57.125Z,29.00
2023-05-10T22:13:24.977Z,29.00
2023-05-10T22:15:52.845Z,37.40
2023-05-10T22:18:21.079Z,36.33
2023-05-10T22:20:50.235Z,36.28
2023-05-10T22:23:18.134Z,28.60
2023-05-10T22:25:45.978Z,27.00
2023-05-10T22:28:13.797Z,30.92
2023-05-10T22:30:42.981Z,33.72
2023-05-10T22:33:10.980Z,31.30
2023-05-10T22:35:38.860Z,30.33
2023-05-10T22:38:08.161Z,37.50
2023-05-10T22:40:36.051Z,33.95
2023-05-10T22:43:03.937Z,34.85
2023-05-10T22:45:32.435Z,31.70
2023-05-10T22:48:00.730Z,35.10
2023-05-10T22:50:29.268Z,32.50
2023-05-10T22:52:57.132Z,34.13
2023-05-10T22:55:26.602Z,33.40
2023-05-10T22:57:54.886Z,38.97
2023-05-10T23:00:22.954Z,32.92
2023-05-10T23:02:51.731Z,31.98
2023-05-10T23:05:19.925Z,37.85
2023-05-10T23:07:53.058Z,33.40
2023-05-10T23:10:20.929Z,39.03
2023-05-10T23:12:52.697Z,30.48
2023-05-10T23:15:20.577Z,30.13
2023-05-10T23:17:48.464Z,38.80
2023-05-10T23:20:16.800Z,41.00
2023-05-10T23:22:44.975Z,33.10
2023-05-10T23:25:12.755Z,31.60
2023-05-10T23:27:40.714Z,33.35
2023-05-10T23:30:11.523Z,33.10
2023-05-10T23:32:39.554Z,38.45
2023-05-10T23:35:08.786Z,33.80
2023-05-10T23:37:37.253Z,34.17
2023-05-10T23:40:05.671Z,34.95
2023-05-10T23:42:33.958Z,35.85
2023-05-10T23:45:01.857Z,35.97
2023-05-10T23:47:31.161Z,41.17
2023-05-10T23:49:58.966Z,38.35
2023-05-10T23:52:26.969Z,38.00
2023-05-10T23:54:55.438Z,34.20
2023-05-10T23:57:23.487Z,32.95
2023-05-10T23:59:51.461Z,31.65
